sensor_id;sensor_type;location;lat;lon;timestamp;pressure;altitude;pressure_sealevel;temperature;humidity
44075;BME280;60448;44.956;7.660;2022-11-15T00:00:00;99220;;;16.4;74.7
44075;BME280;60448;44.956;7.660;2022-11-15T00:05:00;99230;;;16.4;74.7
44075;BME280;60448;44.956;7.660;2022-11-15T00:10:00;99230;;;16.4;74.7
44075;BME280;60448;44.956;7.660;2022-11-15T00:15:00;99220;;;16.4;74.7
44075;BME280;60448;44.956;7.660;2022-11-15T00:20:00;99220;;;16.4;74.7
44075;BME280;60448;44.956;7.660;2022-11-15T00:25:00;99220;;;16.4;74.7
44075;BME280;60448;44.956;7.660;2022-11-15T00:30:00;99210;;;16.3;74.7
44075;BME280;60448;44.956;7.660;2022-11-15T00:35:00;99200;;;16.3;74.7
44075;BME280;60448;44.956;7.660;2022-11-15T00:40:00;99200;;;16.3;74.7
44075;BME280;60448;44.956;7.660;2022-11-15T00:45:00;99200;;;16.3;74.7
44075;BME280;60448;44.956;7.660;2022-11-15T00:50:00;99190;;;16.3;74.6
44075;BME280;60448;44.956;7.660;2022-11-15T00:55:00;99190;;;16.3;74.6
44075;BME280;60448;44.956;7.660;2022-11-15T01:00:00;99190;;;16.3;74.6
44075;BME280;60448;44.956;7.660;2022-11-15T01:05:00;99180;;;16.3;74.6
44075;BME280;60448;44.956;7.660;2022-11-15T01:10:00;99190;;;16.3;74.6
44075;BME280;60448;44.956;7.660;2022-11-15T01:15:00;99190;;;16.3;74.6
44075;BME280;60448;44.956;7.660;2022-11-15T01:20:00;99180;;;16.3;74.6
44075;BME280;60448;44.956;7.660;2022-11-15T01:25:00;99180;;;16.3;74.6
44075;BME280;60448;44.956;7.660;2022-11-15T01:30:00;99170;;;16.3;74.6
44075;BME280;60448;44.956;7.660;2022-11-15T01:35:00;99160;;;16.3;74.6
44075;BME280;60448;44.956;7.660;2022-11-15T01:40:00;99160;;;16.3;74.7
44075;BME280;60448;44.956;7.660;2022-11-15T01:45:00;99150;;;16.2;74.7
44075;BME280;60448;44.956;7.660;2022-11-15T01:50:00;99150;;;16.2;74.6
44075;BME280;60448;44.956;7.660;2022-11-15T01:55:03;99130;;;16.2;74.7
44075;BME280;60448;44.956;7.660;2022-11-15T02:00:00;99130;;;16.2;74.7
44075;BME280;60448;44.956;7.660;2022-11-15T02:05:00;99120;;;16.2;74.6
44075;BME280;60448;44.956;7.660;2022-11-15T02:10:02;99120;;;16.2;74.6
44075;BME280;60448;44.956;7.660;2022-11-15T02:15:00;99110;;;16.2;74.6
44075;BME280;60448;44.956;7.660;2022-11-15T02:25:03;99090;;;16.2;74.7
44075;BME280;60448;44.956;7.660;2022-11-15T02:35:02;99090;;;16.2;74.7
44075;BME280;60448;44.956;7.660;2022-11-15T02:40:04;99090;;;16.2;74.7
44075;BME280;60448;44.956;7.660;2022-11-15T02:45:01;99080;;;16.2;74.7
44075;BME280;60448;44.956;7.660;2022-11-15T02:50:04;99070;;;16.2;74.7
44075;BME280;60448;44.956;7.660;2022-11-15T02:55:00;99070;;;16.2;74.7
44075;BME280;60448;44.956;7.660;2022-11-15T03:00:02;99070;;;16.2;74.7
44075;BME280;60448;44.956;7.660;2022-11-15T03:05:14;99070;;;16.2;74.7
44075;BME280;60448;44.956;7.660;2022-11-15T03:15:01;99060;;;16.1;74.7
44075;BME280;60448;44.956;7.660;2022-11-15T03:20:01;99050;;;16.1;74.7
44075;BME280;60448;44.956;7.660;2022-11-15T03:25:00;99050;;;16.1;74.7
44075;BME280;60448;44.956;7.660;2022-11-15T03:30:00;99050;;;16.1;74.7
44075;BME280;60448;44.956;7.660;2022-11-15T03:35:02;99040;;;16.1;74.7
44075;BME280;60448;44.956;7.660;2022-11-15T03:40:00;99050;;;16.1;74.7
44075;BME280;60448;44.956;7.660;2022-11-15T03:50:03;99040;;;16.2;74.7
44075;BME280;60448;44.956;7.660;2022-11-15T03:55:00;99040;;;16.1;74.7
44075;BME280;60448;44.956;7.660;2022-11-15T04:00:00;99040;;;16.1;74.7
44075;BME280;60448;44.956;7.660;2022-11-15T04:05:00;99040;;;16.1;74.7
44075;BME280;60448;44.956;7.660;2022-11-15T04:10:00;99030;;;16.1;74.7
44075;BME280;60448;44.956;7.660;2022-11-15T04:15:00;99020;;;16.1;74.7
44075;BME280;60448;44.956;7.660;2022-11-15T04:20:00;99030;;;16.1;74.7
44075;BME280;60448;44.956;7.660;2022-11-15T04:25:00;99030;;;16.1;74.7
44075;BME280;60448;44.956;7.660;2022-11-15T04:30:00;99030;;;16.1;74.7
44075;BME280;60448;44.956;7.660;2022-11-15T04:35:00;99020;;;16.1;74.7
44075;BME280;60448;44.956;7.660;2022-11-15T04:40:00;99020;;;16.1;74.7
44075;BME280;60448;44.956;7.660;2022-11-15T04:45:00;99020;;;16.1;74.7
44075;BME280;60448;44.956;7.660;2022-11-15T04:50:00;99010;;;16.1;74.8
44075;BME280;60448;44.956;7.660;2022-11-15T04:55:00;99010;;;16.1;74.8
44075;BME280;60448;44.956;7.660;2022-11-15T05:00:00;99010;;;16.1;74.8
44075;BME280;60448;44.956;7.660;2022-11-15T05:05:00;99000;;;16.1;74.7
44075;BME280;60448;44.956;7.660;2022-11-15T05:10:00;99010;;;16.0;74.7
44075;BME280;60448;44.956;7.660;2022-11-15T05:15:00;99010;;;16.0;74.7
44075;BME280;60448;44.956;7.660;2022-11-15T05:20:00;99000;;;16.0;74.6
44075;BME280;60448;44.956;7.660;2022-11-15T05:25:00;98990;;;16.0;74.7
44075;BME280;60448;44.956;7.660;2022-11-15T05:30:00;98990;;;16.0;74.7
44075;BME280;60448;44.956;7.660;2022-11-15T05:35:00;98990;;;16.0;74.7
44075;BME280;60448;44.956;7.660;2022-11-15T05:40:00;98980;;;16.0;74.8
44075;BME280;60448;44.956;7.660;2022-11-15T05:45:01;98990;;;16.0;74.9
44075;BME280;60448;44.956;7.660;2022-11-15T05:50:00;98990;;;16.0;74.9
44075;BME280;60448;44.956;7.660;2022-11-15T05:55:00;98990;;;16.0;74.9
44075;BME280;60448;44.956;7.660;2022-11-15T06:00:00;98980;;;16.0;74.9
44075;BME280;60448;44.956;7.660;2022-11-15T06:05:00;98980;;;16.0;74.9
44075;BME280;60448;44.956;7.660;2022-11-15T06:10:00;98980;;;16.0;74.9
44075;BME280;60448;44.956;7.660;2022-11-15T06:15:00;98980;;;16.0;74.9
44075;BME280;60448;44.956;7.660;2022-11-15T06:20:00;98970;;;16.0;74.9
44075;BME280;60448;44.956;7.660;2022-11-15T06:25:00;98970;;;16.0;74.9
44075;BME280;60448;44.956;7.660;2022-11-15T06:30:00;98970;;;16.0;74.9
44075;BME280;60448;44.956;7.660;2022-11-15T06:35:00;98960;;;16.0;74.9
44075;BME280;60448;44.956;7.660;2022-11-15T06:40:00;98960;;;16.0;74.9
44075;BME280;60448;44.956;7.660;2022-11-15T06:45:00;98960;;;16.0;74.9
44075;BME280;60448;44.956;7.660;2022-11-15T06:50:00;98960;;;16.1;77.2
44075;BME280;60448;44.956;7.660;2022-11-15T06:55:00;98960;;;16.1;77.2
44075;BME280;60448;44.956;7.660;2022-11-15T07:00:00;98960;;;16.1;77.2
44075;BME280;60448;44.956;7.660;2022-11-15T07:05:00;98960;;;16.5;76.5
44075;BME280;60448;44.956;7.660;2022-11-15T07:10:00;98960;;;16.6;76.1
44075;BME280;60448;44.956;7.660;2022-11-15T07:15:00;98960;;;16.7;76.0
44075;BME280;60448;44.956;7.660;2022-11-15T07:20:00;98960;;;16.8;76.0
44075;BME280;60448;44.956;7.660;2022-11-15T07:25:00;98960;;;16.8;75.9
44075;BME280;60448;44.956;7.660;2022-11-15T07:30:00;98960;;;16.8;75.7
44075;BME280;60448;44.956;7.660;2022-11-15T07:35:00;98960;;;16.9;75.3
44075;BME280;60448;44.956;7.660;2022-11-15T07:40:00;98970;;;17.0;75.1
44075;BME280;60448;44.956;7.660;2022-11-15T07:45:00;98960;;;17.0;75.1
44075;BME280;60448;44.956;7.660;2022-11-15T07:50:00;98970;;;17.0;75.0
44075;BME280;60448;44.956;7.660;2022-11-15T07:55:00;98970;;;17.0;74.9
44075;BME280;60448;44.956;7.660;2022-11-15T08:00:00;98970;;;17.0;74.9
44075;BME280;60448;44.956;7.660;2022-11-15T08:05:00;98970;;;17.0;75.0
44075;BME280;60448;44.956;7.660;2022-11-15T08:10:00;98960;;;17.0;75.0
44075;BME280;60448;44.956;7.660;2022-11-15T08:15:00;98970;;;17.0;75.2
44075;BME280;60448;44.956;7.660;2022-11-15T08:20:00;98970;;;17.0;75.3
44075;BME280;60448;44.956;7.660;2022-11-15T08:25:00;98970;;;17.0;75.1
44075;BME280;60448;44.956;7.660;2022-11-15T08:30:00;98970;;;17.0;75.2
44075;BME280;60448;44.956;7.660;2022-11-15T08:35:00;98960;;;17.0;75.2
44075;BME280;60448;44.956;7.660;2022-11-15T08:40:00;98960;;;17.0;75.2
44075;BME280;60448;44.956;7.660;2022-11-15T08:45:00;98960;;;17.0;75.1
44075;BME280;60448;44.956;7.660;2022-11-15T08:50:00;98950;;;17.0;75.1
44075;BME280;60448;44.956;7.660;2022-11-15T08:55:00;98960;;;16.9;75.3
44075;BME280;60448;44.956;7.660;2022-11-15T09:00:00;98950;;;16.9;75.2
44075;BME280;60448;44.956;7.660;2022-11-15T09:05:00;98950;;;16.9;75.4
44075;BME280;60448;44.956;7.660;2022-11-15T09:10:00;98950;;;16.9;75.3
44075;BME280;60448;44.956;7.660;2022-11-15T09:15:00;98950;;;16.9;75.4
44075;BME280;60448;44.956;7.660;2022-11-15T09:20:00;98950;;;16.9;75.4
44075;BME280;60448;44.956;7.660;2022-11-15T09:25:00;98950;;;16.9;75.4
44075;BME280;60448;44.956;7.660;2022-11-15T09:30:00;98960;;;17.0;75.2
44075;BME280;60448;44.956;7.660;2022-11-15T09:35:00;98960;;;16.9;75.2
44075;BME280;60448;44.956;7.660;2022-11-15T09:40:00;98970;;;16.9;75.1
44075;BME280;60448;44.956;7.660;2022-11-15T09:45:07;98960;;;16.9;75.1
44075;BME280;60448;44.956;7.660;2022-11-15T09:50:00;98960;;;16.9;75.1
44075;BME280;60448;44.956;7.660;2022-11-15T09:55:00;98960;;;16.9;75.1
44075;BME280;60448;44.956;7.660;2022-11-15T10:00:04;98960;;;16.9;75.0
44075;BME280;60448;44.956;7.660;2022-11-15T10:05:00;98950;;;16.9;74.9
44075;BME280;60448;44.956;7.660;2022-11-15T10:15:05;98940;;;16.9;75.0
44075;BME280;60448;44.956;7.660;2022-11-15T10:20:03;98930;;;16.9;75.1
44075;BME280;60448;44.956;7.660;2022-11-15T10:30:00;98930;;;16.9;75.2
44075;BME280;60448;44.956;7.660;2022-11-15T10:35:00;98930;;;16.9;75.1
44075;BME280;60448;44.956;7.660;2022-11-15T10:45:00;98900;;;16.9;75.2
44075;BME280;60448;44.956;7.660;2022-11-15T10:50:01;98900;;;16.9;75.4
44075;BME280;60448;44.956;7.660;2022-11-15T10:55:01;98890;;;16.9;74.9
44075;BME280;60448;44.956;7.660;2022-11-15T11:00:02;98870;;;16.9;74.9
44075;BME280;60448;44.956;7.660;2022-11-15T11:05:00;98860;;;16.9;74.9
44075;BME280;60448;44.956;7.660;2022-11-15T11:10:01;98860;;;16.8;75.0
44075;BME280;60448;44.956;7.660;2022-11-15T11:15:01;98850;;;16.8;75.1
44075;BME280;60448;44.956;7.660;2022-11-15T11:25:04;98830;;;16.8;75.2
44075;BME280;60448;44.956;7.660;2022-11-15T11:35:19;98820;;;16.9;75.1
44075;BME280;60448;44.956;7.660;2022-11-15T11:50:01;98810;;;16.9;75.2
44075;BME280;60448;44.956;7.660;2022-11-15T11:55:02;98800;;;16.8;75.6
44075;BME280;60448;44.956;7.660;2022-11-15T12:05:04;98790;;;16.7;76.8
44075;BME280;60448;44.956;7.660;2022-11-15T12:10:03;98780;;;16.7;77.4
44075;BME280;60448;44.956;7.660;2022-11-15T12:15:02;98780;;;16.6;77.9
44075;BME280;60448;44.956;7.660;2022-11-15T12:20:02;98770;;;16.6;78.2
44075;BME280;60448;44.956;7.660;2022-11-15T12:25:01;98770;;;16.6;78.5
44075;BME280;60448;44.956;7.660;2022-11-15T12:30:03;98760;;;16.6;78.6
44075;BME280;60448;44.956;7.660;2022-11-15T12:35:00;98750;;;16.6;78.7
44075;BME280;60448;44.956;7.660;2022-11-15T12:45:00;98730;;;16.6;78.8
44075;BME280;60448;44.956;7.660;2022-11-15T12:50:00;98720;;;16.6;78.7
44075;BME280;60448;44.956;7.660;2022-11-15T12:55:00;98720;;;16.6;78.6
44075;BME280;60448;44.956;7.660;2022-11-15T13:00:05;98700;;;16.6;78.7
44075;BME280;60448;44.956;7.660;2022-11-15T13:10:00;98700;;;16.6;78.8
44075;BME280;60448;44.956;7.660;2022-11-15T13:15:01;98690;;;16.7;78.6
44075;BME280;60448;44.956;7.660;2022-11-15T13:25:01;98680;;;16.7;78.2
44075;BME280;60448;44.956;7.660;2022-11-15T13:30:00;98680;;;16.8;78.0
44075;BME280;60448;44.956;7.660;2022-11-15T13:35:00;98670;;;16.8;77.9
44075;BME280;60448;44.956;7.660;2022-11-15T13:45:01;98660;;;16.8;77.8
44075;BME280;60448;44.956;7.660;2022-11-15T13:50:00;98650;;;16.8;77.7
44075;BME280;60448;44.956;7.660;2022-11-15T13:55:01;98650;;;16.8;77.6
44075;BME280;60448;44.956;7.660;2022-11-15T14:00:02;98650;;;16.8;77.6
44075;BME280;60448;44.956;7.660;2022-11-15T14:10:16;98650;;;16.9;77.4
44075;BME280;60448;44.956;7.660;2022-11-15T14:15:02;98650;;;16.9;77.4
44075;BME280;60448;44.956;7.660;2022-11-15T14:20:00;98650;;;16.9;77.2
44075;BME280;60448;44.956;7.660;2022-11-15T14:30:00;98640;;;16.9;77.0
44075;BME280;60448;44.956;7.660;2022-11-15T14:35:01;98630;;;16.9;77.0
44075;BME280;60448;44.956;7.660;2022-11-15T14:40:00;98630;;;16.9;77.0
44075;BME280;60448;44.956;7.660;2022-11-15T14:45:00;98620;;;16.9;76.9
44075;BME280;60448;44.956;7.660;2022-11-15T14:50:00;98620;;;17.0;76.9
44075;BME280;60448;44.956;7.660;2022-11-15T14:55:00;98610;;;17.0;76.7
44075;BME280;60448;44.956;7.660;2022-11-15T15:00:00;98610;;;17.0;76.7
44075;BME280;60448;44.956;7.660;2022-11-15T15:05:00;98610;;;17.0;76.7
44075;BME280;60448;44.956;7.660;2022-11-15T15:10:00;98600;;;17.0;76.6
44075;BME280;60448;44.956;7.660;2022-11-15T15:15:00;98590;;;17.0;76.7
44075;BME280;60448;44.956;7.660;2022-11-15T15:20:00;98600;;;17.0;76.6
44075;BME280;60448;44.956;7.660;2022-11-15T15:25:00;98590;;;17.0;76.5
44075;BME280;60448;44.956;7.660;2022-11-15T15:30:00;98580;;;17.0;76.7
44075;BME280;60448;44.956;7.660;2022-11-15T15:35:00;98570;;;17.0;76.4
44075;BME280;60448;44.956;7.660;2022-11-15T15:40:00;98570;;;17.0;76.3
44075;BME280;60448;44.956;7.660;2022-11-15T15:45:00;98570;;;17.0;76.3
44075;BME280;60448;44.956;7.660;2022-11-15T15:50:00;98560;;;17.0;76.4
44075;BME280;60448;44.956;7.660;2022-11-15T15:55:00;98560;;;16.9;76.4
44075;BME280;60448;44.956;7.660;2022-11-15T16:00:00;98550;;;16.9;76.4
44075;BME280;60448;44.956;7.660;2022-11-15T16:05:00;98550;;;16.9;76.4
44075;BME280;60448;44.956;7.660;2022-11-15T16:10:00;98550;;;16.9;76.5
44075;BME280;60448;44.956;7.660;2022-11-15T16:15:00;98540;;;16.9;76.5
44075;BME280;60448;44.956;7.660;2022-11-15T16:20:00;98530;;;16.9;76.7
44075;BME280;60448;44.956;7.660;2022-11-15T16:25:00;98530;;;16.9;76.7
44075;BME280;60448;44.956;7.660;2022-11-15T16:30:00;98530;;;16.9;76.5
44075;BME280;60448;44.956;7.660;2022-11-15T16:35:00;98530;;;17.0;76.5
44075;BME280;60448;44.956;7.660;2022-11-15T16:40:00;98530;;;17.0;76.3
44075;BME280;60448;44.956;7.660;2022-11-15T16:45:00;98520;;;17.0;76.3
44075;BME280;60448;44.956;7.660;2022-11-15T16:50:02;98520;;;17.0;76.2
44075;BME280;60448;44.956;7.660;2022-11-15T16:55:00;98520;;;17.0;76.0
44075;BME280;60448;44.956;7.660;2022-11-15T17:00:00;98520;;;17.0;76.1
44075;BME280;60448;44.956;7.660;2022-11-15T17:05:00;98520;;;17.0;76.2
44075;BME280;60448;44.956;7.660;2022-11-15T17:10:01;98520;;;17.0;76.0
44075;BME280;60448;44.956;7.660;2022-11-15T17:15:00;98520;;;17.1;75.8
44075;BME280;60448;44.956;7.660;2022-11-15T17:20:02;98520;;;17.2;75.4
44075;BME280;60448;44.956;7.660;2022-11-15T17:25:00;98520;;;17.2;75.5
44075;BME280;60448;44.956;7.660;2022-11-15T17:30:00;98510;;;17.2;75.6
44075;BME280;60448;44.956;7.660;2022-11-15T17:35:00;98510;;;17.2;75.3
44075;BME280;60448;44.956;7.660;2022-11-15T17:40:00;98500;;;17.3;75.2
44075;BME280;60448;44.956;7.660;2022-11-15T17:45:00;98500;;;17.3;75.1
44075;BME280;60448;44.956;7.660;2022-11-15T17:50:00;98500;;;17.3;75.2
44075;BME280;60448;44.956;7.660;2022-11-15T17:55:00;98500;;;17.2;75.3
44075;BME280;60448;44.956;7.660;2022-11-15T18:00:00;98500;;;17.2;75.4
44075;BME280;60448;44.956;7.660;2022-11-15T18:05:00;98500;;;17.2;75.5
44075;BME280;60448;44.956;7.660;2022-11-15T18:10:00;98510;;;17.2;75.6
44075;BME280;60448;44.956;7.660;2022-11-15T18:15:00;98500;;;17.2;75.6
44075;BME280;60448;44.956;7.660;2022-11-15T18:20:00;98500;;;17.2;75.6
44075;BME280;60448;44.956;7.660;2022-11-15T18:25:00;98490;;;17.2;75.7
44075;BME280;60448;44.956;7.660;2022-11-15T18:30:00;98480;;;17.1;75.8
44075;BME280;60448;44.956;7.660;2022-11-15T18:35:00;98480;;;17.0;76.0
44075;BME280;60448;44.956;7.660;2022-11-15T18:40:00;98480;;;17.0;76.2
44075;BME280;60448;44.956;7.660;2022-11-15T18:45:00;98470;;;16.9;76.3
44075;BME280;60448;44.956;7.660;2022-11-15T18:50:00;98470;;;16.9;76.4
44075;BME280;60448;44.956;7.660;2022-11-15T18:55:00;98470;;;16.9;76.5
44075;BME280;60448;44.956;7.660;2022-11-15T19:00:00;98470;;;16.8;76.6
44075;BME280;60448;44.956;7.660;2022-11-15T19:05:00;98460;;;16.8;76.7
44075;BME280;60448;44.956;7.660;2022-11-15T19:10:00;98460;;;16.8;76.6
44075;BME280;60448;44.956;7.660;2022-11-15T19:15:00;98450;;;16.8;76.6
44075;BME280;60448;44.956;7.660;2022-11-15T19:20:00;98440;;;16.7;76.7
44075;BME280;60448;44.956;7.660;2022-11-15T19:25:00;98430;;;16.7;76.8
44075;BME280;60448;44.956;7.660;2022-11-15T19:30:00;98430;;;16.7;76.8
44075;BME280;60448;44.956;7.660;2022-11-15T19:35:00;98430;;;16.7;76.8
44075;BME280;60448;44.956;7.660;2022-11-15T19:40:00;98420;;;16.7;76.8
44075;BME280;60448;44.956;7.660;2022-11-15T19:45:00;98430;;;16.7;76.8
44075;BME280;60448;44.956;7.660;2022-11-15T19:50:00;98440;;;16.7;76.9
44075;BME280;60448;44.956;7.660;2022-11-15T19:55:00;98440;;;16.7;76.9
44075;BME280;60448;44.956;7.660;2022-11-15T20:00:00;98440;;;16.7;76.9
44075;BME280;60448;44.956;7.660;2022-11-15T20:05:00;98430;;;16.7;76.9
44075;BME280;60448;44.956;7.660;2022-11-15T20:10:00;98420;;;16.6;76.9
44075;BME280;60448;44.956;7.660;2022-11-15T20:15:00;98420;;;16.6;76.9
44075;BME280;60448;44.956;7.660;2022-11-15T20:20:00;98420;;;16.6;77.0
44075;BME280;60448;44.956;7.660;2022-11-15T20:25:00;98420;;;16.6;77.0
44075;BME280;60448;44.956;7.660;2022-11-15T20:30:00;98410;;;16.6;76.9
44075;BME280;60448;44.956;7.660;2022-11-15T20:35:00;98410;;;16.6;76.9
44075;BME280;60448;44.956;7.660;2022-11-15T20:40:00;98400;;;16.6;76.9
44075;BME280;60448;44.956;7.660;2022-11-15T20:45:00;98400;;;16.6;77.0
44075;BME280;60448;44.956;7.660;2022-11-15T20:50:00;98390;;;16.6;77.0
44075;BME280;60448;44.956;7.660;2022-11-15T20:55:00;98390;;;16.6;77.0
44075;BME280;60448;44.956;7.660;2022-11-15T21:00:00;98390;;;16.6;77.0
44075;BME280;60448;44.956;7.660;2022-11-15T21:05:00;98390;;;16.6;77.0
44075;BME280;60448;44.956;7.660;2022-11-15T21:10:00;98390;;;16.6;76.9
44075;BME280;60448;44.956;7.660;2022-11-15T21:15:00;98390;;;16.6;76.9
44075;BME280;60448;44.956;7.660;2022-11-15T21:20:00;98380;;;16.6;76.9
44075;BME280;60448;44.956;7.660;2022-11-15T21:25:00;98380;;;16.6;76.9
44075;BME280;60448;44.956;7.660;2022-11-15T21:30:00;98370;;;16.6;76.9
44075;BME280;60448;44.956;7.660;2022-11-15T21:35:00;98360;;;16.6;76.9
44075;BME280;60448;44.956;7.660;2022-11-15T21:40:00;98360;;;16.6;76.9
44075;BME280;60448;44.956;7.660;2022-11-15T21:45:00;98340;;;16.7;76.8
44075;BME280;60448;44.956;7.660;2022-11-15T21:50:00;98340;;;16.6;76.9
44075;BME280;60448;44.956;7.660;2022-11-15T21:55:00;98340;;;16.5;76.9
44075;BME280;60448;44.956;7.660;2022-11-15T22:00:00;98330;;;16.5;76.9
44075;BME280;60448;44.956;7.660;2022-11-15T22:05:00;98320;;;16.5;76.9
44075;BME280;60448;44.956;7.660;2022-11-15T22:10:00;98310;;;16.5;76.9
44075;BME280;60448;44.956;7.660;2022-11-15T22:15:00;98310;;;16.5;76.9
44075;BME280;60448;44.956;7.660;2022-11-15T22:20:00;98310;;;16.5;76.9
44075;BME280;60448;44.956;7.660;2022-11-15T22:25:00;98310;;;16.5;76.9
44075;BME280;60448;44.956;7.660;2022-11-15T22:30:00;98290;;;16.5;76.9
44075;BME280;60448;44.956;7.660;2022-11-15T22:35:00;98280;;;16.5;76.8
44075;BME280;60448;44.956;7.660;2022-11-15T22:40:05;98270;;;16.5;76.8
44075;BME280;60448;44.956;7.660;2022-11-15T22:45:00;98260;;;16.5;76.8
44075;BME280;60448;44.956;7.660;2022-11-15T22:50:00;98250;;;16.5;76.8
44075;BME280;60448;44.956;7.660;2022-11-15T22:55:00;98260;;;16.5;76.8
44075;BME280;60448;44.956;7.660;2022-11-15T23:00:00;98260;;;16.5;76.8
44075;BME280;60448;44.956;7.660;2022-11-15T23:05:00;98260;;;16.5;76.8
44075;BME280;60448;44.956;7.660;2022-11-15T23:10:00;98240;;;16.5;76.7
44075;BME280;60448;44.956;7.660;2022-11-15T23:15:00;98230;;;16.5;76.8
44075;BME280;60448;44.956;7.660;2022-11-15T23:20:00;98210;;;16.5;76.7
44075;BME280;60448;44.956;7.660;2022-11-15T23:25:00;98210;;;16.5;76.8
44075;BME280;60448;44.956;7.660;2022-11-15T23:30:00;98210;;;16.5;76.8
44075;BME280;60448;44.956;7.660;2022-11-15T23:35:00;98200;;;16.5;76.7
44075;BME280;60448;44.956;7.660;2022-11-15T23:40:00;98190;;;16.5;76.7
44075;BME280;60448;44.956;7.660;2022-11-15T23:45:00;98180;;;16.5;76.7
44075;BME280;60448;44.956;7.660;2022-11-15T23:50:00;98170;;;16.5;76.7
44075;BME280;60448;44.956;7.660;2022-11-15T23:55:00;98160;;;16.4;76.7
